CheckWX is a tool to help pilots better visualize weather data.  It is not intended as a substitute for an official pre-flight weather briefing.

18:00:26 UTC

EGPD METAR
Aberdeen Dyce Airport
Aberdeen, United Kingdom
Current

40 mins ago

EGPD 171720Z AUTO 19019KT 9999 NCD 09/05 Q1001 NOSIG
Observed
Feb-17 @ 17:20 UTC
Wind
  • 190° at 19 KTS
Visibility
10,000+ meters
Flight Rules
VFR
Cloud Levels
  • Clear skies
Temperature
C / 48°F
Dewpoint
C / 41°F
Humidity
76%
Altimeter
29.56" Hg
Pressure
1000.92 hPa
Previous

1 hour ago

EGPD 171650Z AUTO 19013KT 9999 FEW030 10/05 Q1001 NOSIG
Observed
Feb-17 @ 16:50 UTC
Wind
  • 190° at 13 KTS
Visibility
10,000+ meters
Flight Rules
VFR
Cloud Levels
  • Few at 3,000' AGL
Temperature
10°C / 50°F
Dewpoint
C / 41°F
Humidity
71%
Altimeter
29.56" Hg
Pressure
1000.92 hPa
Previous

2 hours ago

EGPD 171620Z AUTO 18017KT 9999 BKN027 10/06 Q1001 NOSIG
Observed
Feb-17 @ 16:20 UTC
Wind
  • 180° at 17 KTS
Visibility
10,000+ meters
Flight Rules
MVFR
Cloud Levels
  • Broken at 2,700' AGL
Temperature
10°C / 50°F
Dewpoint
C / 43°F
Humidity
76%
Altimeter
29.56" Hg
Pressure
1000.92 hPa